Startpagina
METAR-TAF:

METAR-TAF

Vliegvelden :

Aéroport de Luxembourg

Luxemburg, Luxemburg

breedte: 49-37N, lengte: 006-13E, hoogte: 376 m

Actueel weer

Dit bericht is 33 minuten geleden gemaakt, om 05:20 UTC
Wind 9 kt uit het noordnoordoosten
Temperatuur 0°C
Vochtigheid 74%
Druk 1023 hPa
Zicht 10 km of meer
geen wolken onder 1500 m en geen cumulonimbus

METAR: ELLX 220520Z 03009KT CAVOK 00/M04 Q1023 NOSIG

Tijdstip: 07:53 (05:53 UTC)

Verwachting

Dit bericht is 53 minuten geleden gemaakt, om 05:00 UTC
Verwachting geldig van 22 om 06 UTC tot 23 om 12 UTC
Wind 10 kt uit het noordnoordoosten
Zicht 10 km of meer
geen wolken onder 1500 m en geen cumulonimbus
Kans 40% :
Tijdelijke
van 22 om 11 UTC tot 22 om 19 UTC
Wind 15 kt uit het noordnoordoosten met uitschieters tot 25 kt
Zicht: 4500 m
Verspreide wolken op 2500 ft, Cumulonimbus.
regenbuien, korrelhagel of korrelsneeuw,

TAF: ELLX 220500Z 2206/2312 02010KT CAVOK PROB40 TEMPO 2211/2219 03015G25KT 4500 SHRAGS SCT025CB

Waarnemingen en weersverwachtingen van meer dan 4000 vliegvelden (METAR en TAF).

De beschikbare stations zijn de gele en rode punten op de kaart.

Ga met uw muis naar het station om de naam te zien.

Klik dan om waarnemingen en weersverwachtingen te zien.

kaart wijzigen: klik op de groene knoppen met een zwart kruis om in te zoomen, op de groene knop met een streepje om uit te zoomen of op de groene pijlen voor aangrenzende kaarten.


METAR-TAF: